createdAt,value
2022-08-05T00:00:16.167Z,12.38
2022-08-05T00:02:51.584Z,6.43
2022-08-05T00:06:03.301Z,11.18
2022-08-05T00:08:30.858Z,6.35
2022-08-05T00:11:00.389Z,5.00
2022-08-05T00:13:38.730Z,8.93
2022-08-05T00:16:12.685Z,10.15
2022-08-05T00:18:42.079Z,8.27
2022-08-05T00:21:09.617Z,6.47
2022-08-05T00:23:45.781Z,8.50
2022-08-05T00:26:16.438Z,10.93
2022-08-05T00:28:44.018Z,10.88
2022-08-05T00:31:13.378Z,5.68
2022-08-05T00:34:53.629Z,9.35
2022-08-05T00:37:09.861Z,15.98
2022-08-05T00:39:14.505Z,5.95
2022-08-05T00:41:55.289Z,8.77
2022-08-05T00:44:30.778Z,8.70
2022-08-05T00:47:02.161Z,6.88
2022-08-05T00:49:44.380Z,6.45
2022-08-05T00:52:18.381Z,11.48
2022-08-05T00:54:56.010Z,8.95
2022-08-05T00:57:25.228Z,12.88
2022-08-05T00:59:58.465Z,6.72
2022-08-05T01:02:25.347Z,6.57
2022-08-05T01:04:55.009Z,7.18
2022-08-05T01:07:22.322Z,9.73
2022-08-05T01:09:59.101Z,9.45
2022-08-05T01:12:29.753Z,12.48
2022-08-05T01:15:07.059Z,14.48
2022-08-05T01:18:03.753Z,6.32
2022-08-05T01:20:49.020Z,5.28
2022-08-05T01:23:34.975Z,17.02
2022-08-05T01:26:19.276Z,13.70
2022-08-05T01:28:57.325Z,5.90
2022-08-05T01:31:51.764Z,9.80
2022-08-05T01:34:26.736Z,11.95
2022-08-05T01:37:06.176Z,7.65
2022-08-05T01:39:46.778Z,15.35
2022-08-05T01:42:19.780Z,6.80
2022-08-05T01:44:53.873Z,12.80
2022-08-05T01:47:24.656Z,9.93
2022-08-05T01:50:15.381Z,12.60
2022-08-05T01:52:44.575Z,10.77
2022-08-05T01:55:20.837Z,13.05
2022-08-05T01:58:11.342Z,15.45
2022-08-05T02:00:42.640Z,10.82
2022-08-05T02:03:24.614Z,11.73
2022-08-05T02:06:00.977Z,10.18
2022-08-05T02:08:31.586Z,9.30
2022-08-05T02:11:12.713Z,12.18
2022-08-05T02:13:53.790Z,9.18
2022-08-05T02:16:52.465Z,15.60
2022-08-05T02:19:47.043Z,10.30
2022-08-05T02:22:49.814Z,10.65
2022-08-05T02:25:25.093Z,12.23
2022-08-05T02:27:59.645Z,12.35
2022-08-05T02:30:34.406Z,13.60
2022-08-05T02:33:03.897Z,5.25
2022-08-05T02:35:38.166Z,11.90
2022-08-05T02:38:19.426Z,9.20
2022-08-05T02:40:47.461Z,16.27
2022-08-05T02:43:16.930Z,8.40
2022-08-05T02:45:52.276Z,16.42
2022-08-05T02:48:29.171Z,11.38
2022-08-05T02:51:01.573Z,16.90
2022-08-05T02:53:39.018Z,9.15
2022-08-05T02:56:08.671Z,7.68
2022-08-05T02:58:37.357Z,7.57
2022-08-05T03:01:33.672Z,10.07
2022-08-05T03:04:12.032Z,9.70
2022-08-05T03:06:56.160Z,9.63
2022-08-05T03:09:27.155Z,7.68
2022-08-05T03:12:05.809Z,13.38
2022-08-05T03:14:32.800Z,7.90
2022-08-05T03:17:00.864Z,13.57
2022-08-05T03:19:33.728Z,13.68
2022-08-05T03:22:01.629Z,4.88
2022-08-05T03:24:30.780Z,8.60
2022-08-05T03:26:59.203Z,11.13
2022-08-05T03:29:45.357Z,7.82
2022-08-05T03:32:15.609Z,10.30
2022-08-05T03:34:50.560Z,13.10
2022-08-05T03:37:19.824Z,7.35
2022-08-05T03:40:01.090Z,7.32
2022-08-05T03:42:32.318Z,8.18
2022-08-05T03:45:01.829Z,7.10
2022-08-05T03:47:35.207Z,9.05
2022-08-05T03:50:02.631Z,11.05
2022-08-05T03:52:36.906Z,10.95
2022-08-05T03:56:10.054Z,6.03
2022-08-05T03:58:29.051Z,9.75
2022-08-05T04:00:59.148Z,11.73
2022-08-05T04:03:29.350Z,10.60
2022-08-05T04:05:59.175Z,6.47
2022-08-05T04:08:30.357Z,9.52
2022-08-05T04:11:04.407Z,8.55
2022-08-05T04:13:50.170Z,9.50
2022-08-05T04:16:24.125Z,8.52
2022-08-05T04:18:54.428Z,5.28
2022-08-05T04:22:09.220Z,7.95
2022-08-05T04:24:18.727Z,7.07
2022-08-05T04:26:49.022Z,10.10
2022-08-05T04:29:15.956Z,4.47
2022-08-05T04:31:43.029Z,3.70
2022-08-05T04:34:18.330Z,7.50
2022-08-05T04:36:50.135Z,7.88
2022-08-05T04:39:20.539Z,7.53
2022-08-05T04:41:50.961Z,2.65
2022-08-05T04:44:21.316Z,4.88
2022-08-05T04:46:57.483Z,9.75
2022-08-05T04:49:38.596Z,11.30
2022-08-05T04:52:12.738Z,13.00
2022-08-05T04:54:39.681Z,12.35
2022-08-05T04:57:06.621Z,12.35
2022-08-05T04:59:40.550Z,10.55
2022-08-05T05:02:36.998Z,7.25
2022-08-05T05:05:02.301Z,10.55
2022-08-05T05:07:32.445Z,20.10
2022-08-05T05:10:02.149Z,17.88
2022-08-05T05:12:30.018Z,7.82
2022-08-05T05:14:57.051Z,9.57
2022-08-05T05:17:55.822Z,7.13
2022-08-05T05:20:12.871Z,10.15
2022-08-05T05:22:41.020Z,14.60
2022-08-05T05:25:17.038Z,5.47
2022-08-05T05:27:53.581Z,8.15
2022-08-05T05:30:30.825Z,9.52
2022-08-05T05:33:03.786Z,7.47
2022-08-05T05:35:42.644Z,13.05
2022-08-05T05:38:13.090Z,10.10
2022-08-05T05:40:48.369Z,14.20
2022-08-05T05:43:27.614Z,10.20
2022-08-05T05:46:13.616Z,15.20
2022-08-05T05:48:44.292Z,5.93
2022-08-05T05:51:15.820Z,8.35
2022-08-05T05:53:54.559Z,10.30
2022-08-05T05:56:31.957Z,6.28
2022-08-05T05:59:03.532Z,13.75
2022-08-05T06:01:37.578Z,11.40
2022-08-05T06:04:08.321Z,10.90
2022-08-05T06:06:41.762Z,10.60
2022-08-05T06:09:09.623Z,11.80
2022-08-05T06:12:01.696Z,8.80
2022-08-05T06:14:34.626Z,9.77
2022-08-05T06:17:22.419Z,8.00
2022-08-05T06:19:56.756Z,8.43
2022-08-05T06:22:33.562Z,16.17
2022-08-05T06:25:01.739Z,11.00
2022-08-05T06:28:10.447Z,6.55
2022-08-05T06:30:35.418Z,9.50
2022-08-05T06:33:02.559Z,12.25
2022-08-05T06:36:05.807Z,8.77
2022-08-05T06:38:16.527Z,10.05
2022-08-05T06:40:44.417Z,10.13
2022-08-05T06:43:58.933Z,14.43
2022-08-05T06:46:03.932Z,10.98
2022-08-05T06:48:47.182Z,10.68
2022-08-05T06:51:29.335Z,14.23
2022-08-05T06:54:02.007Z,9.60
2022-08-05T06:56:34.365Z,8.88
2022-08-05T06:59:01.665Z,9.85
2022-08-05T07:01:32.222Z,9.48
2022-08-05T07:04:02.267Z,8.98
2022-08-05T07:06:30.128Z,9.70
2022-08-05T07:08:59.041Z,13.35
2022-08-05T07:11:28.222Z,9.52
2022-08-05T07:14:15.784Z,8.98
2022-08-05T07:17:59.331Z,9.60
2022-08-05T07:22:27.879Z,6.57
2022-08-05T07:25:22.046Z,5.60
2022-08-05T07:27:57.770Z,5.93
2022-08-05T07:30:32.770Z,7.38
2022-08-05T07:33:05.449Z,4.68
2022-08-05T07:36:02.373Z,4.18
2022-08-05T07:38:33.197Z,14.30
2022-08-05T07:42:08.709Z,11.45
2022-08-05T07:43:57.017Z,9.07
2022-08-05T07:46:28.975Z,9.25
2022-08-05T07:49:01.587Z,4.45
2022-08-05T07:51:37.134Z,7.13
2022-08-05T07:54:05.629Z,4.95
2022-08-05T07:57:01.154Z,10.67
2022-08-05T07:59:23.257Z,11.10
2022-08-05T08:01:58.493Z,5.60
2022-08-05T08:04:37.858Z,6.05
2022-08-05T08:07:07.218Z,8.57
2022-08-05T08:09:35.166Z,4.25
2022-08-05T08:12:12.515Z,5.63
2022-08-05T08:14:48.723Z,5.18
2022-08-05T08:17:21.515Z,3.42
2022-08-05T08:20:21.418Z,6.47
2022-08-05T08:22:36.087Z,6.28
2022-08-05T08:25:03.930Z,5.25
2022-08-05T08:27:47.634Z,4.93
2022-08-05T08:30:28.465Z,2.97
2022-08-05T08:33:04.502Z,7.60
2022-08-05T08:35:34.811Z,8.68
2022-08-05T08:38:07.675Z,3.33
2022-08-05T08:40:35.888Z,9.52
2022-08-05T08:45:16.839Z,7.05
2022-08-05T08:45:54.409Z,4.18
2022-08-05T08:49:03.052Z,4.18
2022-08-05T08:52:02.040Z,3.40
2022-08-05T08:53:57.067Z,6.30
2022-08-05T08:56:27.141Z,7.20
2022-08-05T08:58:55.059Z,5.50
2022-08-05T09:01:25.642Z,4.38
2022-08-05T09:03:57.322Z,2.40
2022-08-05T09:06:30.369Z,4.43
2022-08-05T09:09:02.383Z,3.35
2022-08-05T09:11:53.430Z,7.78
2022-08-05T09:14:58.932Z,3.30
2022-08-05T09:17:09.812Z,5.07
2022-08-05T09:20:02.650Z,7.60
2022-08-05T09:23:07.831Z,4.03
2022-08-05T09:26:02.880Z,4.90
2022-08-05T09:28:31.478Z,3.75
2022-08-05T09:32:38.640Z,7.68
2022-08-05T09:34:09.627Z,6.15
2022-08-05T09:36:55.323Z,2.20
2022-08-05T09:39:27.801Z,4.03
2022-08-05T09:42:13.622Z,2.88
2022-08-05T09:44:56.756Z,8.20
2022-08-05T09:47:30.679Z,15.10
2022-08-05T09:50:38.253Z,5.05
2022-08-05T09:53:06.138Z,5.47
2022-08-05T09:55:56.142Z,3.53
2022-08-05T09:58:24.593Z,5.43
2022-08-05T10:01:01.836Z,4.57
2022-08-05T10:03:58.483Z,4.68
2022-08-05T10:06:28.035Z,6.35
2022-08-05T10:08:55.787Z,2.00
2022-08-05T10:11:23.047Z,4.78
2022-08-05T10:13:54.699Z,1.83
2022-08-05T10:16:41.918Z,3.50
2022-08-05T10:19:23.730Z,2.85
2022-08-05T10:21:59.730Z,1.73
2022-08-05T10:24:27.405Z,3.28
2022-08-05T10:27:00.508Z,2.90
2022-08-05T10:30:06.519Z,2.25
2022-08-05T10:32:55.538Z,3.90
2022-08-05T10:35:04.422Z,1.10
2022-08-05T10:37:40.103Z,3.08
2022-08-05T10:40:28.996Z,1.73
2022-08-05T10:43:08.053Z,1.13
2022-08-05T10:45:40.473Z,4.22
2022-08-05T10:48:40.619Z,3.05
2022-08-05T10:51:23.102Z,3.63
2022-08-05T10:54:01.625Z,3.15
2022-08-05T10:56:49.292Z,1.00
2022-08-05T11:00:03.741Z,4.32
2022-08-05T11:02:34.815Z,4.68
2022-08-05T11:05:05.954Z,2.05
2022-08-05T11:08:01.722Z,1.92
2022-08-05T11:10:27.409Z,2.92
2022-08-05T11:12:57.869Z,1.85
2022-08-05T11:16:00.303Z,1.75
2022-08-05T11:18:32.551Z,2.67
2022-08-05T11:21:06.139Z,4.30
2022-08-05T11:24:04.924Z,1.48
2022-08-05T11:26:43.359Z,2.15
2022-08-05T11:29:42.978Z,3.08
2022-08-05T11:32:27.806Z,3.05
2022-08-05T11:34:55.980Z,3.72
2022-08-05T11:38:28.304Z,2.95
2022-08-05T11:41:54.558Z,1.35
2022-08-05T11:44:40.494Z,1.17
2022-08-05T11:47:10.502Z,1.85
2022-08-05T11:49:43.030Z,2.08
2022-08-05T11:52:11.593Z,1.55
2022-08-05T11:54:41.279Z,5.70
2022-08-05T11:57:26.089Z,2.67
2022-08-05T11:59:55.269Z,5.15
2022-08-05T12:02:31.621Z,1.35
2022-08-05T12:05:07.558Z,2.42
2022-08-05T12:08:07.528Z,2.13
2022-08-05T12:10:39.051Z,2.25
2022-08-05T12:13:28.172Z,1.50
2022-08-05T12:16:17.648Z,1.35
2022-08-05T12:18:49.622Z,1.30
2022-08-05T12:21:23.708Z,4.85
2022-08-05T12:23:54.622Z,2.70
2022-08-05T12:26:23.127Z,1.67
2022-08-05T12:28:51.134Z,2.80
2022-08-05T12:31:23.705Z,5.82
2022-08-05T12:34:09.322Z,4.63
2022-08-05T12:36:48.107Z,4.00
2022-08-05T12:39:15.113Z,1.35
2022-08-05T12:41:43.869Z,3.35
2022-08-05T12:44:14.139Z,1.92
2022-08-05T12:46:45.729Z,1.38
2022-08-05T12:49:19.087Z,4.03
2022-08-05T12:52:12.755Z,2.85
2022-08-05T12:54:45.507Z,3.58
2022-08-05T12:57:13.425Z,2.13
2022-08-05T13:01:57.418Z,2.00
2022-08-05T13:02:36.229Z,1.08
2022-08-05T13:05:06.986Z,5.00
2022-08-05T13:07:59.286Z,1.63
2022-08-05T13:10:20.893Z,1.33
2022-08-05T13:12:57.163Z,2.00
2022-08-05T13:15:41.242Z,1.40
2022-08-05T13:18:09.215Z,3.85
2022-08-05T13:20:40.488Z,2.50
2022-08-05T13:23:07.742Z,0.30
2022-08-05T13:25:52.817Z,0.90
2022-08-05T13:28:22.444Z,1.95
2022-08-05T13:30:51.223Z,4.88
2022-08-05T13:36:09.522Z,4.63
2022-08-05T13:38:42.436Z,3.97
2022-08-05T13:41:11.697Z,2.95
2022-08-05T13:43:43.989Z,3.65
2022-08-05T13:46:37.695Z,2.83
2022-08-05T13:49:11.780Z,3.30
2022-08-05T13:51:40.970Z,3.75
2022-08-05T13:54:11.921Z,2.47
2022-08-05T13:56:40.051Z,2.35
2022-08-05T13:59:20.071Z,3.25
2022-08-05T14:01:56.594Z,2.10
2022-08-05T14:04:57.247Z,2.60
2022-08-05T14:10:28.939Z,10.48
2022-08-05T14:12:59.418Z,3.13
2022-08-05T14:16:08.954Z,5.20
2022-08-05T14:18:17.420Z,3.78
2022-08-05T14:23:14.724Z,3.15
2022-08-05T14:25:54.027Z,0.90
2022-08-05T14:30:54.673Z,1.00
2022-08-05T14:33:23.244Z,3.40
2022-08-05T14:35:52.048Z,1.88
2022-08-05T14:38:32.937Z,1.40
2022-08-05T14:41:06.898Z,1.50
2022-08-05T14:43:59.434Z,5.85
2022-08-05T14:46:28.845Z,1.70
2022-08-05T14:48:59.546Z,3.53
2022-08-05T14:51:31.052Z,0.28
2022-08-05T14:54:26.297Z,1.15
2022-08-05T14:56:46.893Z,1.95
2022-08-05T14:59:15.364Z,0.90
2022-08-05T15:01:48.342Z,2.47
2022-08-05T15:04:16.959Z,2.88
2022-08-05T15:06:49.464Z,0.95
2022-08-05T15:09:50.605Z,3.70
2022-08-05T15:12:06.266Z,0.45
2022-08-05T15:14:48.205Z,2.55
2022-08-05T15:17:47.132Z,2.58
2022-08-05T15:20:19.085Z,4.25
2022-08-05T15:22:52.148Z,1.45
2022-08-05T15:25:23.521Z,1.00
2022-08-05T15:28:08.975Z,3.50
2022-08-05T15:30:41.462Z,4.55
2022-08-05T15:33:10.444Z,3.17
2022-08-05T15:35:45.198Z,2.50
2022-08-05T15:38:35.582Z,5.22
2022-08-05T15:41:23.077Z,7.35
2022-08-05T15:43:47.360Z,2.20
2022-08-05T15:46:14.540Z,3.35
2022-08-05T15:48:52.786Z,2.88
2022-08-05T15:52:12.540Z,2.15
2022-08-05T15:54:15.904Z,2.67
2022-08-05T15:56:43.603Z,2.22
2022-08-05T15:59:21.700Z,2.28
2022-08-05T16:01:52.322Z,5.32
2022-08-05T16:04:25.195Z,3.10
2022-08-05T16:06:52.249Z,2.42
2022-08-05T16:09:19.309Z,3.42
2022-08-05T16:11:52.774Z,2.20
2022-08-05T16:14:20.207Z,1.80
2022-08-05T16:16:47.413Z,5.35
2022-08-05T16:19:25.401Z,2.13
2022-08-05T16:22:03.324Z,1.70
2022-08-05T16:24:40.994Z,4.00
2022-08-05T16:27:17.987Z,3.20
2022-08-05T16:29:50.383Z,4.53
2022-08-05T16:32:28.467Z,5.30
2022-08-05T16:34:56.583Z,4.20
2022-08-05T16:38:16.394Z,1.85
2022-08-05T16:40:25.009Z,2.55
2022-08-05T16:42:55.875Z,3.88
2022-08-05T16:46:04.033Z,6.05
2022-08-05T16:48:10.336Z,2.80
2022-08-05T16:50:37.595Z,3.60
2022-08-05T16:53:12.317Z,2.35
2022-08-05T16:55:49.209Z,2.05
2022-08-05T16:58:19.628Z,1.75
2022-08-05T17:00:48.168Z,1.60
2022-08-05T17:03:20.132Z,3.83
2022-08-05T17:08:36.748Z,3.50
2022-08-05T17:11:12.582Z,4.70
2022-08-05T17:13:45.396Z,5.07
2022-08-05T17:16:32.526Z,5.43
2022-08-05T17:19:00.268Z,1.30
2022-08-05T17:21:35.663Z,4.22
2022-08-05T17:24:09.321Z,4.20
2022-08-05T17:26:52.891Z,3.35
2022-08-05T17:29:22.272Z,3.75
2022-08-05T17:31:58.756Z,5.70
2022-08-05T17:34:29.771Z,3.75
2022-08-05T17:36:57.172Z,3.78
2022-08-05T17:39:29.787Z,5.20
2022-08-05T17:42:19.228Z,1.52
2022-08-05T17:44:50.500Z,1.27
2022-08-05T17:47:21.954Z,2.38
2022-08-05T17:50:00.243Z,5.15
2022-08-05T17:52:32.398Z,3.58
2022-08-05T17:54:59.850Z,1.40
2022-08-05T17:57:27.717Z,1.60
2022-08-05T18:00:03.483Z,2.17
2022-08-05T18:02:36.135Z,2.38
2022-08-05T18:05:07.741Z,4.27
2022-08-05T18:07:41.748Z,3.63
2022-08-05T18:10:11.568Z,1.73
2022-08-05T18:12:41.075Z,3.58
2022-08-05T18:15:09.060Z,3.83
2022-08-05T18:18:00.393Z,5.72
2022-08-05T18:20:29.429Z,5.43
2022-08-05T18:23:04.901Z,2.85
2022-08-05T18:25:39.164Z,2.65
2022-08-05T18:28:07.140Z,3.55
2022-08-05T18:30:39.130Z,2.50
2022-08-05T18:33:08.613Z,3.20
2022-08-05T18:36:01.332Z,4.18
2022-08-05T18:38:28.866Z,2.20
2022-08-05T18:41:56.634Z,2.58
2022-08-05T18:43:48.789Z,4.32
2022-08-05T18:46:19.756Z,1.02
2022-08-05T18:52:04.324Z,5.35
2022-08-05T18:54:28.483Z,4.88
2022-08-05T18:56:59.288Z,2.20
2022-08-05T18:59:42.730Z,3.67
2022-08-05T19:02:28.051Z,3.17
2022-08-05T19:06:05.840Z,1.17
2022-08-05T19:07:52.762Z,2.05
2022-08-05T19:10:26.559Z,8.23
2022-08-05T19:12:56.332Z,1.17
2022-08-05T19:15:57.410Z,3.80
2022-08-05T19:18:21.027Z,5.07
2022-08-05T19:20:52.491Z,3.10
2022-08-05T19:24:06.251Z,2.65
2022-08-05T19:26:08.431Z,5.57
2022-08-05T19:28:41.677Z,5.90
2022-08-05T19:31:13.393Z,2.20
2022-08-05T19:33:48.687Z,3.45
2022-08-05T19:36:25.063Z,2.75
2022-08-05T19:38:53.852Z,3.55
2022-08-05T19:41:21.898Z,6.90
2022-08-05T19:44:13.399Z,3.92
2022-08-05T19:46:41.506Z,6.88
2022-08-05T19:49:16.387Z,3.38
2022-08-05T19:52:08.505Z,1.95
2022-08-05T19:54:34.076Z,4.85
2022-08-05T19:57:08.436Z,5.75
2022-08-05T19:59:55.837Z,2.45
2022-08-05T20:02:24.513Z,3.72
2022-08-05T20:04:55.010Z,4.45
2022-08-05T20:07:46.647Z,4.05
2022-08-05T20:10:13.756Z,4.15
2022-08-05T20:12:46.016Z,5.53
2022-08-05T20:15:48.318Z,2.03
2022-08-05T20:18:09.801Z,3.63
2022-08-05T20:20:55.190Z,3.78
2022-08-05T20:23:40.122Z,5.43
2022-08-05T20:26:16.002Z,3.45
2022-08-05T20:28:45.079Z,1.85
2022-08-05T20:31:12.028Z,6.05
2022-08-05T20:33:42.385Z,4.65
2022-08-05T20:36:10.085Z,3.95
2022-08-05T20:38:53.141Z,5.53
2022-08-05T20:41:23.757Z,3.05
2022-08-05T20:43:59.803Z,3.10
2022-08-05T20:46:28.517Z,4.10
2022-08-05T20:48:55.417Z,1.33
2022-08-05T20:51:22.305Z,2.70
2022-08-05T20:53:56.809Z,8.15
2022-08-05T20:56:29.748Z,7.32
2022-08-05T20:59:00.114Z,3.25
2022-08-05T21:01:39.070Z,0.90
2022-08-05T21:04:10.479Z,3.38
2022-08-05T21:06:45.366Z,8.27
2022-08-05T21:09:14.222Z,2.90
2022-08-05T21:12:10.756Z,5.55
2022-08-05T21:14:34.638Z,3.22
2022-08-05T21:17:06.073Z,1.15
2022-08-05T21:19:46.611Z,6.03
2022-08-05T21:22:14.831Z,4.13
2022-08-05T21:24:44.740Z,3.13
2022-08-05T21:27:16.199Z,4.00
2022-08-05T21:29:48.282Z,4.38
2022-08-05T21:32:19.793Z,5.57
2022-08-05T21:35:09.012Z,5.28
2022-08-05T21:37:34.975Z,2.92
2022-08-05T21:40:13.820Z,4.53
2022-08-05T21:42:44.585Z,3.85
2022-08-05T21:47:56.192Z,5.45
2022-08-05T21:50:26.500Z,7.28
2022-08-05T21:52:59.116Z,1.75
2022-08-05T21:55:42.942Z,3.97
2022-08-05T21:58:24.826Z,7.13
2022-08-05T22:00:59.592Z,10.63
2022-08-05T22:03:48.984Z,8.75
2022-08-05T22:06:13.544Z,7.30
2022-08-05T22:08:42.471Z,8.73
2022-08-05T22:11:15.754Z,7.57
2022-08-05T22:14:19.895Z,9.10
2022-08-05T22:16:42.017Z,4.63
2022-08-05T22:20:01.116Z,3.47
2022-08-05T22:22:05.612Z,4.05
2022-08-05T22:24:52.289Z,6.10
2022-08-05T22:28:10.348Z,3.80
2022-08-05T22:30:55.498Z,6.03
2022-08-05T22:33:57.106Z,4.10
2022-08-05T22:36:14.724Z,4.65
2022-08-05T22:38:48.118Z,6.13
2022-08-05T22:42:04.422Z,6.60
2022-08-05T22:44:03.960Z,5.60
2022-08-05T22:46:31.217Z,6.20
2022-08-05T22:48:59.341Z,2.90
2022-08-05T22:52:04.700Z,7.07
2022-08-05T22:54:13.513Z,4.30
2022-08-05T22:56:40.964Z,6.05
2022-08-05T22:59:43.941Z,6.95
2022-08-05T23:02:05.501Z,2.38
2022-08-05T23:04:34.984Z,3.75
2022-08-05T23:07:02.642Z,2.70
2022-08-05T23:09:58.004Z,3.30
2022-08-05T23:12:23.870Z,3.85
2022-08-05T23:14:51.739Z,10.18
2022-08-05T23:17:34.624Z,6.45
2022-08-05T23:20:16.440Z,4.20
2022-08-05T23:22:43.855Z,3.88
2022-08-05T23:25:17.059Z,2.20
2022-08-05T23:28:07.066Z,8.52
2022-08-05T23:30:40.499Z,3.83
2022-08-05T23:33:16.335Z,3.53
2022-08-05T23:35:49.377Z,6.13
2022-08-05T23:38:16.970Z,4.32
2022-08-05T23:40:49.870Z,4.53
2022-08-05T23:43:25.300Z,3.30
2022-08-05T23:46:21.321Z,2.70
2022-08-05T23:48:59.772Z,2.45
2022-08-05T23:51:53.505Z,4.38
2022-08-05T23:54:38.276Z,5.75
2022-08-05T23:57:07.224Z,4.55
